sensor_id;sensor_type;location;lat;lon;timestamp;P1;durP1;ratioP1;P2;durP2;ratioP2
36751;SDS011;22718;49.494;7.036;2024-02-26T06:41:47;1.35;;;0.32;;
36751;SDS011;22718;49.494;7.036;2024-02-26T06:44:13;1.90;;;0.55;;
36751;SDS011;22718;49.494;7.036;2024-02-26T06:46:39;3.85;;;0.77;;
36751;SDS011;22718;49.494;7.036;2024-02-26T06:49:05;1.92;;;0.32;;
36751;SDS011;22718;49.494;7.036;2024-02-26T06:51:30;1.63;;;0.40;;
36751;SDS011;22718;49.494;7.036;2024-02-26T06:53:56;1.05;;;0.30;;
36751;SDS011;22718;49.494;7.036;2024-02-26T06:56:21;2.00;;;0.50;;
36751;SDS011;22718;49.494;7.036;2024-02-26T06:58:48;2.67;;;0.40;;
36751;SDS011;22718;49.494;7.036;2024-02-26T07:01:14;2.35;;;0.40;;
36751;SDS011;22718;49.494;7.036;2024-02-26T07:03:40;2.22;;;0.32;;
36751;SDS011;22718;49.494;7.036;2024-02-26T07:06:06;1.63;;;0.30;;
36751;SDS011;22718;49.494;7.036;2024-02-26T07:08:32;1.88;;;0.40;;
36751;SDS011;22718;49.494;7.036;2024-02-26T07:11:08;1.30;;;0.35;;
36751;SDS011;22718;49.494;7.036;2024-02-26T07:13:42;1.63;;;0.40;;
36751;SDS011;22718;49.494;7.036;2024-02-26T07:16:09;1.77;;;0.50;;
36751;SDS011;22718;49.494;7.036;2024-02-26T07:18:35;1.58;;;0.40;;
36751;SDS011;22718;49.494;7.036;2024-02-26T07:21:04;1.27;;;0.40;;
36751;SDS011;22718;49.494;7.036;2024-02-26T07:23:29;2.58;;;0.50;;
36751;SDS011;22718;49.494;7.036;2024-02-26T07:25:56;2.72;;;0.50;;
36751;SDS011;22718;49.494;7.036;2024-02-26T07:28:21;1.92;;;0.45;;
36751;SDS011;22718;49.494;7.036;2024-02-26T07:30:47;2.03;;;0.40;;
36751;SDS011;22718;49.494;7.036;2024-02-26T07:33:12;1.77;;;0.45;;
36751;SDS011;22718;49.494;7.036;2024-02-26T07:35:39;3.97;;;0.60;;
36751;SDS011;22718;49.494;7.036;2024-02-26T07:38:05;3.20;;;0.50;;
36751;SDS011;22718;49.494;7.036;2024-02-26T07:40:31;2.05;;;0.50;;
36751;SDS011;22718;49.494;7.036;2024-02-26T07:42:57;1.90;;;0.50;;
36751;SDS011;22718;49.494;7.036;2024-02-26T07:45:22;3.83;;;0.50;;
36751;SDS011;22718;49.494;7.036;2024-02-26T07:47:48;1.80;;;0.50;;
36751;SDS011;22718;49.494;7.036;2024-02-26T07:50:16;2.90;;;0.88;;
36751;SDS011;22718;49.494;7.036;2024-02-26T07:52:42;1.48;;;0.40;;
36751;SDS011;22718;49.494;7.036;2024-02-26T07:55:07;4.65;;;0.50;;
36751;SDS011;22718;49.494;7.036;2024-02-26T07:57:33;1.67;;;0.47;;
36751;SDS011;22718;49.494;7.036;2024-02-26T07:59:59;1.65;;;0.38;;
36751;SDS011;22718;49.494;7.036;2024-02-26T08:02:25;1.58;;;0.40;;
36751;SDS011;22718;49.494;7.036;2024-02-26T08:04:50;1.92;;;0.50;;
36751;SDS011;22718;49.494;7.036;2024-02-26T08:07:16;5.57;;;1.02;;
36751;SDS011;22718;49.494;7.036;2024-02-26T08:09:42;1.50;;;0.43;;
36751;SDS011;22718;49.494;7.036;2024-02-26T08:12:07;1.58;;;0.40;;
36751;SDS011;22718;49.494;7.036;2024-02-26T08:14:49;3.40;;;0.75;;
36751;SDS011;22718;49.494;7.036;2024-02-26T08:17:14;1.48;;;0.50;;
36751;SDS011;22718;49.494;7.036;2024-02-26T08:19:40;2.83;;;0.82;;
36751;SDS011;22718;49.494;7.036;2024-02-26T08:22:05;1.60;;;0.43;;
36751;SDS011;22718;49.494;7.036;2024-02-26T08:24:31;2.85;;;1.20;;
36751;SDS011;22718;49.494;7.036;2024-02-26T08:26:57;2.53;;;0.40;;
36751;SDS011;22718;49.494;7.036;2024-02-26T08:29:22;2.60;;;0.50;;
36751;SDS011;22718;49.494;7.036;2024-02-26T08:31:48;2.08;;;0.50;;
36751;SDS011;22718;49.494;7.036;2024-02-26T08:34:14;2.80;;;1.15;;
36751;SDS011;22718;49.494;7.036;2024-02-26T08:36:39;5.13;;;0.60;;
36751;SDS011;22718;49.494;7.036;2024-02-26T08:39:05;5.22;;;0.65;;
36751;SDS011;22718;49.494;7.036;2024-02-26T08:41:30;2.08;;;0.40;;
36751;SDS011;22718;49.494;7.036;2024-02-26T08:43:56;2.55;;;0.50;;
36751;SDS011;22718;49.494;7.036;2024-02-26T08:46:23;2.75;;;0.50;;
36751;SDS011;22718;49.494;7.036;2024-02-26T08:48:48;3.47;;;0.43;;
36751;SDS011;22718;49.494;7.036;2024-02-26T08:51:14;2.55;;;0.65;;
36751;SDS011;22718;49.494;7.036;2024-02-26T08:53:40;2.78;;;0.50;;
36751;SDS011;22718;49.494;7.036;2024-02-26T08:56:08;2.30;;;0.50;;
36751;SDS011;22718;49.494;7.036;2024-02-26T08:58:33;1.25;;;0.40;;
36751;SDS011;22718;49.494;7.036;2024-02-26T09:00:59;1.83;;;0.40;;
36751;SDS011;22718;49.494;7.036;2024-02-26T09:03:25;1.38;;;0.40;;
36751;SDS011;22718;49.494;7.036;2024-02-26T09:05:51;1.50;;;0.40;;
36751;SDS011;22718;49.494;7.036;2024-02-26T09:08:16;1.60;;;0.40;;
36751;SDS011;22718;49.494;7.036;2024-02-26T09:10:42;3.75;;;0.55;;
36751;SDS011;22718;49.494;7.036;2024-02-26T09:13:08;1.20;;;0.30;;
36751;SDS011;22718;49.494;7.036;2024-02-26T09:15:34;1.80;;;0.50;;
36751;SDS011;22718;49.494;7.036;2024-02-26T09:17:59;3.70;;;0.40;;
36751;SDS011;22718;49.494;7.036;2024-02-26T09:20:26;1.60;;;0.50;;
36751;SDS011;22718;49.494;7.036;2024-02-26T09:22:53;5.53;;;0.40;;
36751;SDS011;22718;49.494;7.036;2024-02-26T09:25:19;1.73;;;0.40;;
36751;SDS011;22718;49.494;7.036;2024-02-26T09:27:46;1.73;;;0.50;;
36751;SDS011;22718;49.494;7.036;2024-02-26T09:30:12;0.98;;;0.30;;
36751;SDS011;22718;49.494;7.036;2024-02-26T09:32:39;2.03;;;0.40;;
36751;SDS011;22718;49.494;7.036;2024-02-26T09:35:06;1.50;;;0.50;;
36751;SDS011;22718;49.494;7.036;2024-02-26T09:37:32;3.33;;;0.60;;
36751;SDS011;22718;49.494;7.036;2024-02-26T09:39:58;1.92;;;0.50;;
36751;SDS011;22718;49.494;7.036;2024-02-26T09:42:25;3.03;;;0.40;;
36751;SDS011;22718;49.494;7.036;2024-02-26T09:44:53;1.65;;;0.38;;
36751;SDS011;22718;49.494;7.036;2024-02-26T09:47:21;1.43;;;0.40;;
36751;SDS011;22718;49.494;7.036;2024-02-26T09:49:52;3.05;;;0.50;;
36751;SDS011;22718;49.494;7.036;2024-02-26T09:52:20;1.40;;;0.52;;
36751;SDS011;22718;49.494;7.036;2024-02-26T09:54:46;3.28;;;0.50;;
36751;SDS011;22718;49.494;7.036;2024-02-26T09:57:12;1.58;;;0.50;;
36751;SDS011;22718;49.494;7.036;2024-02-26T09:59:41;1.10;;;0.30;;
36751;SDS011;22718;49.494;7.036;2024-02-26T10:02:12;1.33;;;0.32;;
36751;SDS011;22718;49.494;7.036;2024-02-26T10:04:42;3.25;;;0.35;;
36751;SDS011;22718;49.494;7.036;2024-02-26T10:07:12;0.93;;;0.30;;
36751;SDS011;22718;49.494;7.036;2024-02-26T10:09:38;1.15;;;0.30;;
36751;SDS011;22718;49.494;7.036;2024-02-26T10:12:05;0.73;;;0.22;;
36751;SDS011;22718;49.494;7.036;2024-02-26T10:17:06;1.60;;;0.30;;
36751;SDS011;22718;49.494;7.036;2024-02-26T10:19:33;0.90;;;0.30;;
36751;SDS011;22718;49.494;7.036;2024-02-26T10:22:01;1.35;;;0.30;;
36751;SDS011;22718;49.494;7.036;2024-02-26T10:24:35;1.70;;;0.50;;
36751;SDS011;22718;49.494;7.036;2024-02-26T10:27:01;1.88;;;0.45;;
36751;SDS011;22718;49.494;7.036;2024-02-26T10:29:30;2.20;;;0.50;;
36751;SDS011;22718;49.494;7.036;2024-02-26T10:31:58;2.03;;;0.80;;
36751;SDS011;22718;49.494;7.036;2024-02-26T10:34:24;2.10;;;0.40;;
36751;SDS011;22718;49.494;7.036;2024-02-26T10:36:52;1.88;;;0.68;;
36751;SDS011;22718;49.494;7.036;2024-02-26T10:39:19;1.10;;;0.35;;
36751;SDS011;22718;49.494;7.036;2024-02-26T10:41:45;2.42;;;0.68;;
36751;SDS011;22718;49.494;7.036;2024-02-26T10:44:11;1.25;;;0.40;;
36751;SDS011;22718;49.494;7.036;2024-02-26T10:46:38;2.67;;;0.70;;
36751;SDS011;22718;49.494;7.036;2024-02-26T10:49:22;1.63;;;0.50;;
36751;SDS011;22718;49.494;7.036;2024-02-26T10:52:02;2.45;;;0.50;;
36751;SDS011;22718;49.494;7.036;2024-02-26T10:54:51;2.58;;;0.57;;
36751;SDS011;22718;49.494;7.036;2024-02-26T11:00:37;2.45;;;0.43;;
36751;SDS011;22718;49.494;7.036;2024-02-26T11:12:00;1.25;;;0.38;;
36751;SDS011;22718;49.494;7.036;2024-02-26T11:17:52;1.20;;;0.30;;
36751;SDS011;22718;49.494;7.036;2024-02-26T11:20:55;2.75;;;0.30;;
36751;SDS011;22718;49.494;7.036;2024-02-26T11:23:49;1.20;;;0.38;;
36751;SDS011;22718;49.494;7.036;2024-02-26T11:26:35;3.33;;;0.40;;
36751;SDS011;22718;49.494;7.036;2024-02-26T11:29:40;1.40;;;0.30;;
36751;SDS011;22718;49.494;7.036;2024-02-26T11:32:30;1.42;;;0.30;;
36751;SDS011;22718;49.494;7.036;2024-02-26T11:35:35;1.10;;;0.28;;
36751;SDS011;22718;49.494;7.036;2024-02-26T11:38:29;1.25;;;0.40;;
36751;SDS011;22718;49.494;7.036;2024-02-26T11:41:36;0.90;;;0.30;;
36751;SDS011;22718;49.494;7.036;2024-02-26T11:51:04;1.42;;;0.30;;
36751;SDS011;22718;49.494;7.036;2024-02-26T11:57:45;1.00;;;0.20;;
36751;SDS011;22718;49.494;7.036;2024-02-26T12:14:55;0.65;;;0.10;;
36751;SDS011;22718;49.494;7.036;2024-02-26T12:18:52;0.60;;;0.10;;
36751;SDS011;22718;49.494;7.036;2024-02-26T12:25:08;0.65;;;0.15;;
36751;SDS011;22718;49.494;7.036;2024-02-26T12:28:05;0.80;;;0.20;;
36751;SDS011;22718;49.494;7.036;2024-02-26T12:30:56;0.65;;;0.20;;
36751;SDS011;22718;49.494;7.036;2024-02-26T12:44:57;1.58;;;0.25;;
36751;SDS011;22718;49.494;7.036;2024-02-26T12:54:54;1.52;;;0.25;;
36751;SDS011;22718;49.494;7.036;2024-02-26T12:58:38;1.00;;;0.10;;
36751;SDS011;22718;49.494;7.036;2024-02-26T13:01:41;0.75;;;0.20;;
36751;SDS011;22718;49.494;7.036;2024-02-26T13:04:07;1.33;;;0.25;;
36751;SDS011;22718;49.494;7.036;2024-02-26T13:06:33;0.80;;;0.25;;
36751;SDS011;22718;49.494;7.036;2024-02-26T13:08:59;0.70;;;0.22;;
36751;SDS011;22718;49.494;7.036;2024-02-26T13:11:26;1.40;;;0.20;;
36751;SDS011;22718;49.494;7.036;2024-02-26T13:13:54;1.15;;;0.20;;
36751;SDS011;22718;49.494;7.036;2024-02-26T13:16:20;0.98;;;0.20;;
36751;SDS011;22718;49.494;7.036;2024-02-26T13:18:49;1.48;;;0.45;;
36751;SDS011;22718;49.494;7.036;2024-02-26T13:21:21;0.90;;;0.20;;
36751;SDS011;22718;49.494;7.036;2024-02-26T13:23:52;0.88;;;0.28;;
36751;SDS011;22718;49.494;7.036;2024-02-26T13:26:27;0.50;;;0.10;;
36751;SDS011;22718;49.494;7.036;2024-02-26T13:31:26;0.90;;;0.20;;
36751;SDS011;22718;49.494;7.036;2024-02-26T13:33:52;1.30;;;0.20;;
36751;SDS011;22718;49.494;7.036;2024-02-26T13:36:21;0.73;;;0.20;;
36751;SDS011;22718;49.494;7.036;2024-02-26T13:38:54;1.35;;;0.20;;
36751;SDS011;22718;49.494;7.036;2024-02-26T13:41:38;1.70;;;0.20;;
36751;SDS011;22718;49.494;7.036;2024-02-26T13:44:09;0.90;;;0.10;;
36751;SDS011;22718;49.494;7.036;2024-02-26T13:46:47;0.40;;;0.10;;
36751;SDS011;22718;49.494;7.036;2024-02-26T13:49:14;5.47;;;0.68;;
36751;SDS011;22718;49.494;7.036;2024-02-26T13:51:40;2.50;;;0.30;;
36751;SDS011;22718;49.494;7.036;2024-02-26T13:54:06;0.77;;;0.17;;
36751;SDS011;22718;49.494;7.036;2024-02-26T13:56:32;1.08;;;0.25;;
36751;SDS011;22718;49.494;7.036;2024-02-26T13:58:58;0.90;;;0.20;;
36751;SDS011;22718;49.494;7.036;2024-02-26T14:01:25;0.82;;;0.20;;
36751;SDS011;22718;49.494;7.036;2024-02-26T14:03:52;2.38;;;0.10;;
36751;SDS011;22718;49.494;7.036;2024-02-26T14:06:21;0.70;;;0.20;;
36751;SDS011;22718;49.494;7.036;2024-02-26T14:08:48;1.67;;;0.20;;
36751;SDS011;22718;49.494;7.036;2024-02-26T14:11:15;0.55;;;0.10;;
36751;SDS011;22718;49.494;7.036;2024-02-26T14:13:42;1.33;;;0.40;;
36751;SDS011;22718;49.494;7.036;2024-02-26T14:16:08;0.77;;;0.10;;
36751;SDS011;22718;49.494;7.036;2024-02-26T14:18:35;0.82;;;0.17;;
36751;SDS011;22718;49.494;7.036;2024-02-26T14:21:01;0.50;;;0.10;;
36751;SDS011;22718;49.494;7.036;2024-02-26T14:23:27;0.90;;;0.13;;
36751;SDS011;22718;49.494;7.036;2024-02-26T14:25:53;0.20;;;0.10;;
36751;SDS011;22718;49.494;7.036;2024-02-26T14:28:18;1.17;;;0.10;;
36751;SDS011;22718;49.494;7.036;2024-02-26T14:30:44;0.40;;;0.10;;
36751;SDS011;22718;49.494;7.036;2024-02-26T14:33:10;0.65;;;0.10;;
36751;SDS011;22718;49.494;7.036;2024-02-26T14:35:36;0.50;;;0.10;;
36751;SDS011;22718;49.494;7.036;2024-02-26T14:38:02;1.30;;;0.10;;
36751;SDS011;22718;49.494;7.036;2024-02-26T14:40:29;0.28;;;0.10;;
36751;SDS011;22718;49.494;7.036;2024-02-26T14:42:55;2.60;;;0.30;;
36751;SDS011;22718;49.494;7.036;2024-02-26T14:45:22;0.28;;;0.05;;
36751;SDS011;22718;49.494;7.036;2024-02-26T14:47:48;0.20;;;0.03;;
36751;SDS011;22718;49.494;7.036;2024-02-26T14:50:14;0.60;;;0.10;;
36751;SDS011;22718;49.494;7.036;2024-02-26T14:52:40;0.45;;;0.10;;
36751;SDS011;22718;49.494;7.036;2024-02-26T14:55:05;0.45;;;0.10;;
36751;SDS011;22718;49.494;7.036;2024-02-26T14:57:32;0.73;;;0.10;;
36751;SDS011;22718;49.494;7.036;2024-02-26T14:59:59;1.83;;;0.10;;
36751;SDS011;22718;49.494;7.036;2024-02-26T15:02:24;0.73;;;0.13;;
36751;SDS011;22718;49.494;7.036;2024-02-26T15:04:51;0.80;;;0.20;;
36751;SDS011;22718;49.494;7.036;2024-02-26T15:07:18;0.80;;;0.20;;
36751;SDS011;22718;49.494;7.036;2024-02-26T15:09:45;2.50;;;0.70;;
36751;SDS011;22718;49.494;7.036;2024-02-26T15:12:11;3.22;;;0.40;;
36751;SDS011;22718;49.494;7.036;2024-02-26T15:14:36;2.40;;;0.43;;
36751;SDS011;22718;49.494;7.036;2024-02-26T15:17:03;2.20;;;0.30;;
36751;SDS011;22718;49.494;7.036;2024-02-26T15:19:29;1.40;;;0.30;;
36751;SDS011;22718;49.494;7.036;2024-02-26T15:21:58;1.33;;;0.30;;
36751;SDS011;22718;49.494;7.036;2024-02-26T15:25:07;1.33;;;0.30;;
36751;SDS011;22718;49.494;7.036;2024-02-26T15:27:33;1.17;;;0.30;;
36751;SDS011;22718;49.494;7.036;2024-02-26T15:29:59;1.17;;;0.30;;
36751;SDS011;22718;49.494;7.036;2024-02-26T15:32:26;4.18;;;0.40;;
36751;SDS011;22718;49.494;7.036;2024-02-26T15:34:55;2.00;;;0.45;;
36751;SDS011;22718;49.494;7.036;2024-02-26T15:37:21;2.25;;;0.57;;
36751;SDS011;22718;49.494;7.036;2024-02-26T15:39:47;3.35;;;0.50;;
36751;SDS011;22718;49.494;7.036;2024-02-26T15:42:13;2.00;;;0.30;;
36751;SDS011;22718;49.494;7.036;2024-02-26T15:44:40;1.63;;;0.40;;
36751;SDS011;22718;49.494;7.036;2024-02-26T15:47:06;1.58;;;0.43;;
36751;SDS011;22718;49.494;7.036;2024-02-26T15:49:35;2.08;;;0.93;;
36751;SDS011;22718;49.494;7.036;2024-02-26T15:52:00;1.80;;;0.55;;
36751;SDS011;22718;49.494;7.036;2024-02-26T15:54:26;2.55;;;0.68;;
36751;SDS011;22718;49.494;7.036;2024-02-26T15:56:52;3.78;;;0.50;;
36751;SDS011;22718;49.494;7.036;2024-02-26T15:59:19;2.47;;;0.70;;
36751;SDS011;22718;49.494;7.036;2024-02-26T16:01:45;2.08;;;0.77;;
36751;SDS011;22718;49.494;7.036;2024-02-26T16:04:11;3.92;;;0.80;;
36751;SDS011;22718;49.494;7.036;2024-02-26T16:06:41;3.85;;;1.38;;
36751;SDS011;22718;49.494;7.036;2024-02-26T16:09:13;14.68;;;2.25;;
36751;SDS011;22718;49.494;7.036;2024-02-26T16:11:39;4.40;;;1.60;;
36751;SDS011;22718;49.494;7.036;2024-02-26T16:14:11;5.40;;;2.28;;
36751;SDS011;22718;49.494;7.036;2024-02-26T16:16:38;4.95;;;2.17;;
36751;SDS011;22718;49.494;7.036;2024-02-26T16:19:10;6.50;;;2.42;;
36751;SDS011;22718;49.494;7.036;2024-02-26T16:21:38;7.38;;;3.17;;
36751;SDS011;22718;49.494;7.036;2024-02-26T16:24:05;7.65;;;2.80;;
36751;SDS011;22718;49.494;7.036;2024-02-26T16:26:31;7.22;;;3.13;;
36751;SDS011;22718;49.494;7.036;2024-02-26T16:28:57;7.15;;;3.17;;
36751;SDS011;22718;49.494;7.036;2024-02-26T16:31:23;8.63;;;3.47;;
36751;SDS011;22718;49.494;7.036;2024-02-26T16:33:50;10.23;;;4.60;;
36751;SDS011;22718;49.494;7.036;2024-02-26T16:36:15;14.65;;;4.82;;
36751;SDS011;22718;49.494;7.036;2024-02-26T16:38:41;9.40;;;4.05;;
36751;SDS011;22718;49.494;7.036;2024-02-26T16:41:07;9.82;;;5.10;;
36751;SDS011;22718;49.494;7.036;2024-02-26T16:43:33;12.10;;;5.00;;
36751;SDS011;22718;49.494;7.036;2024-02-26T16:46:00;11.98;;;5.82;;
36751;SDS011;22718;49.494;7.036;2024-02-26T16:48:26;12.50;;;5.35;;
36751;SDS011;22718;49.494;7.036;2024-02-26T16:50:57;13.32;;;6.43;;
36751;SDS011;22718;49.494;7.036;2024-02-26T16:53:27;12.20;;;5.35;;
36751;SDS011;22718;49.494;7.036;2024-02-26T16:55:53;10.52;;;5.93;;
36751;SDS011;22718;49.494;7.036;2024-02-26T16:59:35;10.65;;;5.95;;
36751;SDS011;22718;49.494;7.036;2024-02-26T17:02:30;11.10;;;5.78;;
36751;SDS011;22718;49.494;7.036;2024-02-26T17:05:20;10.88;;;5.75;;
36751;SDS011;22718;49.494;7.036;2024-02-26T17:09:06;10.95;;;6.03;;
36751;SDS011;22718;49.494;7.036;2024-02-26T17:11:36;10.07;;;6.82;;
36751;SDS011;22718;49.494;7.036;2024-02-26T17:16:37;9.30;;;5.85;;
36751;SDS011;22718;49.494;7.036;2024-02-26T17:19:29;11.27;;;7.32;;
36751;SDS011;22718;49.494;7.036;2024-02-26T17:22:08;11.63;;;7.57;;
